Time;durP1;ratioP1;P1;durP2;ratioP2;P2;SDS_P1;SDS_P2;PMS_P1;PMS_P2;Temp;Humidity;BMP_temperature;BMP_pressure;BME280_temperature;BME280_humidity;BME280_pressure;Samples;Min_cycle;Max_cycle;Signal;HPM_P1;HPM_P2
2022/01/16 00:06:25;;;;;;;2.88;1.40;;;10.20;99.90;;;;;;5050909;28;20087;-72
2022/01/16 00:08:51;;;;;;;3.63;1.80;;;10.30;99.90;;;;;;5050977;28;20083;-72
2022/01/16 00:11:17;;;;;;;3.28;1.42;;;10.30;99.90;;;;;;5050596;28;20085;-71
2022/01/16 00:13:43;;;;;;;3.50;1.38;;;10.30;99.90;;;;;;5050519;28;20037;-70
2022/01/16 00:16:13;;;;;;;2.15;1.15;;;10.20;99.90;;;;;;5050683;28;20058;-70
2022/01/16 00:18:49;;;;;;;3.63;1.45;;;10.20;99.90;;;;;;5051327;28;20037;-70
2022/01/16 00:21:17;;;;;;;3.03;1.50;;;10.20;99.90;;;;;;5049159;28;20017;-70
2022/01/16 00:23:45;;;;;;;6.10;2.03;;;10.10;99.90;;;;;;5046932;28;20115;-67
2022/01/16 00:26:11;;;;;;;3.40;1.45;;;10.10;99.90;;;;;;5049166;28;20082;-70
2022/01/16 00:28:37;;;;;;;4.93;1.73;;;10.00;99.90;;;;;;5046782;28;20032;-65
2022/01/16 00:31:03;;;;;;;2.45;1.55;;;10.00;99.90;;;;;;5049079;28;20279;-70
2022/01/16 00:33:29;;;;;;;4.85;1.52;;;10.00;99.90;;;;;;5049186;28;20195;-68
2022/01/16 00:35:55;;;;;;;5.07;1.80;;;9.90;99.90;;;;;;5049069;28;20056;-70
2022/01/16 00:38:21;;;;;;;3.00;1.40;;;9.80;99.90;;;;;;5049107;28;20021;-72
2022/01/16 00:40:47;;;;;;;3.58;1.60;;;9.80;99.90;;;;;;5049157;28;20031;-71
2022/01/16 00:43:14;;;;;;;5.82;1.60;;;9.90;99.90;;;;;;5049133;28;20048;-67
2022/01/16 00:45:40;;;;;;;5.93;1.70;;;10.00;99.90;;;;;;5049100;28;20033;-69
2022/01/16 00:48:07;;;;;;;5.28;1.67;;;10.00;99.90;;;;;;5048552;28;20449;-70
2022/01/16 00:50:35;;;;;;;3.00;1.50;;;10.00;99.90;;;;;;5031273;28;20024;-70
2022/01/16 00:53:02;;;;;;;6.50;1.70;;;10.00;99.90;;;;;;5049113;28;20051;-70
2022/01/16 00:55:28;;;;;;;5.90;1.42;;;9.90;99.90;;;;;;5047997;28;20029;-71
2022/01/16 00:57:54;;;;;;;5.43;1.40;;;10.00;99.90;;;;;;5049238;28;20040;-71
2022/01/16 01:00:21;;;;;;;4.00;1.40;;;9.90;99.90;;;;;;5050464;28;20025;-71
2022/01/16 01:02:47;;;;;;;2.60;1.30;;;9.90;99.90;;;;;;5050400;28;20029;-71
2022/01/16 01:05:13;;;;;;;2.90;1.30;;;9.90;99.90;;;;;;5032686;28;20152;-72
2022/01/16 01:07:39;;;;;;;4.22;1.52;;;9.80;99.90;;;;;;5054577;28;20036;-71
2022/01/16 01:10:07;;;;;;;2.75;1.45;;;9.80;99.90;;;;;;5054169;28;20461;-71
2022/01/16 01:12:52;;;;;;;4.13;1.38;;;9.80;99.90;;;;;;5054170;28;20032;-71
2022/01/16 01:15:29;;;;;;;3.63;1.50;;;9.70;99.90;;;;;;5054016;28;20127;-71
2022/01/16 01:17:56;;;;;;;4.03;1.55;;;9.70;99.90;;;;;;5054078;28;20097;-71
2022/01/16 01:20:24;;;;;;;3.00;1.48;;;9.70;99.90;;;;;;5054031;28;20056;-71
2022/01/16 01:22:52;;;;;;;3.35;1.20;;;9.80;99.90;;;;;;5053813;28;20033;-71
2022/01/16 01:25:19;;;;;;;4.00;1.23;;;9.80;99.90;;;;;;5054244;28;20539;-71
2022/01/16 01:27:46;;;;;;;;;;;9.80;99.90;;;;;;5036678;28;20075;-70
2022/01/16 01:30:17;;;;;;;3.67;1.50;;;9.80;99.90;;;;;;5053939;28;19911;-71
2022/01/16 01:32:45;;;;;;;4.85;1.38;;;9.70;99.90;;;;;;5054412;28;20124;-71
2022/01/16 01:35:13;;;;;;;4.90;1.42;;;9.70;99.90;;;;;;5054175;28;20062;-70
2022/01/16 01:37:41;;;;;;;4.32;1.63;;;9.60;99.90;;;;;;5054349;28;20110;-70
2022/01/16 01:40:11;;;;;;;3.47;1.35;;;9.70;99.90;;;;;;5054029;28;20104;-72
2022/01/16 01:42:49;;;;;;;2.30;1.35;;;9.70;99.90;;;;;;5035617;28;20347;-70
2022/01/16 01:51:14;;;;;;;4.10;1.30;;;9.60;99.90;;;;;;5053650;28;20408;-70
2022/01/16 01:53:42;;;;;;;3.28;1.55;;;9.60;99.90;;;;;;5053583;28;20029;-70
2022/01/16 01:56:11;;;;;;;4.32;1.50;;;9.60;99.90;;;;;;5053269;28;20086;-71
2022/01/16 01:58:38;;;;;;;4.28;1.75;;;9.60;99.90;;;;;;5053094;28;20120;-70
2022/01/16 02:01:05;;;;;;;2.80;1.10;;;9.60;99.90;;;;;;5053406;28;20044;-70
2022/01/16 02:06:08;;;;;;;4.55;1.52;;;9.60;99.90;;;;;;5053129;28;20447;-71
2022/01/16 02:08:36;;;;;;;3.45;1.20;;;9.50;99.90;;;;;;5053250;28;20017;-70
2022/01/16 02:11:03;;;;;;;3.70;1.70;;;9.50;99.90;;;;;;5053066;28;20033;-71
2022/01/16 02:13:33;;;;;;;4.93;1.65;;;9.50;99.90;;;;;;5052737;28;20477;-70
2022/01/16 02:30:02;;;;;;;5.07;1.42;;;9.50;99.90;;;;;;5052705;28;20097;-71
2022/01/16 02:34:58;;;;;;;2.45;1.15;;;9.50;99.90;;;;;;5052555;28;20040;-71
2022/01/16 02:37:25;;;;;;;3.30;1.40;;;9.50;99.90;;;;;;5052614;28;20051;-70
2022/01/16 02:39:53;;;;;;;2.43;1.30;;;9.60;99.90;;;;;;5052315;28;20017;-70
2022/01/16 02:42:25;;;;;;;5.95;1.60;;;9.60;99.90;;;;;;5052387;28;20056;-71
2022/01/16 02:45:01;;;;;;;4.07;1.42;;;9.50;99.90;;;;;;5052285;28;20070;-71
2022/01/16 02:47:27;;;;;;;4.13;1.90;;;9.50;99.90;;;;;;5052205;28;20546;-70
2022/01/16 02:49:53;;;;;;;4.25;1.58;;;9.50;99.90;;;;;;5052666;28;20386;-70
2022/01/16 02:52:21;;;;;;;2.08;1.17;;;9.50;99.90;;;;;;5052181;28;20041;-70
2022/01/16 02:54:51;;;;;;;3.83;2.00;;;9.60;99.90;;;;;;5051972;28;20021;-70
2022/01/16 02:57:19;;;;;;;3.45;1.17;;;9.70;99.90;;;;;;5052251;28;20021;-71
2022/01/16 02:59:54;;;;;;;4.78;1.35;;;9.60;99.90;;;;;;5052519;28;20029;-71
2022/01/16 03:02:24;;;;;;;4.47;1.30;;;9.60;99.90;;;;;;5052014;28;20059;-70
2022/01/16 03:04:50;;;;;;;3.53;1.10;;;9.60;99.90;;;;;;5052006;28;20036;-70
2022/01/16 03:07:17;;;;;;;3.45;1.30;;;9.70;99.90;;;;;;5052186;28;20014;-71
2022/01/16 03:10:05;;;;;;;2.65;1.20;;;9.60;99.90;;;;;;5033832;28;20526;-70
2022/01/16 03:12:31;;;;;;;4.63;1.00;;;9.60;99.90;;;;;;5051796;28;20085;-71
2022/01/16 03:14:57;;;;;;;4.32;1.38;;;9.60;99.90;;;;;;5051824;28;20029;-70
2022/01/16 03:17:36;;;;;;;2.67;1.20;;;9.50;99.90;;;;;;5051665;28;20033;-71
2022/01/16 03:22:52;;;;;;;4.55;1.52;;;9.60;99.90;;;;;;5052046;28;20151;-70
2022/01/16 03:25:18;;;;;;;3.53;1.17;;;9.60;99.90;;;;;;5051361;28;20037;-71
2022/01/16 03:27:45;;;;;;;5.07;1.37;;;9.60;99.90;;;;;;5051663;28;20051;-70
2022/01/16 03:30:12;;;;;;;4.22;1.67;;;9.70;99.90;;;;;;5050866;28;20095;-71
2022/01/16 03:32:38;;;;;;;4.25;1.60;;;9.60;99.90;;;;;;5051759;28;20029;-70
2022/01/16 03:35:05;;;;;;;5.30;1.30;;;9.50;99.90;;;;;;5051311;28;20381;-70
2022/01/16 03:37:31;;;;;;;3.15;1.55;;;9.60;99.90;;;;;;5051194;28;20267;-70
2022/01/16 03:39:57;;;;;;;2.50;1.38;;;9.60;99.90;;;;;;5051658;28;20120;-71
2022/01/16 03:42:27;;;;;;;3.50;1.20;;;9.70;99.90;;;;;;5051253;28;20066;-71
2022/01/16 03:44:53;;;;;;;6.00;1.98;;;9.70;99.90;;;;;;5051300;28;20025;-71
2022/01/16 03:47:20;;;;;;;4.32;1.50;;;9.60;99.90;;;;;;5051604;28;20153;-70
2022/01/16 03:49:46;;;;;;;5.57;1.75;;;9.70;99.90;;;;;;5051302;28;20020;-72
2022/01/16 03:52:12;;;;;;;5.57;1.60;;;9.70;99.90;;;;;;5051055;28;20033;-71
2022/01/16 03:54:38;;;;;;;4.38;1.40;;;9.60;99.90;;;;;;5051353;28;20370;-71
2022/01/16 03:57:04;;;;;;;4.13;1.58;;;9.60;99.90;;;;;;5051138;28;20074;-71
2022/01/16 03:59:30;;;;;;;4.55;1.55;;;9.60;99.90;;;;;;5051384;28;20055;-71
2022/01/16 04:01:56;;;;;;;4.47;1.30;;;9.50;99.90;;;;;;5050993;28;20044;-71
2022/01/16 04:04:22;;;;;;;4.22;1.70;;;9.60;99.90;;;;;;5051074;28;20024;-71
2022/01/16 04:06:48;;;;;;;2.85;1.52;;;9.60;99.90;;;;;;5050761;28;20071;-71
2022/01/16 04:09:14;;;;;;;4.10;1.80;;;9.60;99.90;;;;;;5050838;28;20040;-71
2022/01/16 04:11:49;;;;;;;4.17;1.60;;;9.50;99.90;;;;;;5051032;28;20041;-70
2022/01/16 04:14:22;;;;;;;5.55;1.70;;;9.50;99.90;;;;;;5050748;28;20251;-71
2022/01/16 04:16:49;;;;;;;5.05;1.80;;;9.60;99.90;;;;;;5051207;28;20025;-71
2022/01/16 04:19:15;;;;;;;4.38;1.65;;;9.60;99.90;;;;;;5050938;28;20021;-71
2022/01/16 04:21:41;;;;;;;4.53;2.05;;;9.40;99.90;;;;;;5050637;28;20460;-70
2022/01/16 04:24:07;;;;;;;4.50;1.90;;;9.50;99.90;;;;;;5050747;28;20021;-71
2022/01/16 04:26:33;;;;;;;4.60;1.88;;;9.50;99.90;;;;;;5050691;28;20311;-71
2022/01/16 04:28:59;;;;;;;3.40;1.70;;;9.40;99.90;;;;;;5051100;28;20159;-71
2022/01/16 04:31:25;;;;;;;6.82;2.20;;;9.50;99.90;;;;;;5050699;28;20480;-71
2022/01/16 04:33:51;;;;;;;3.25;1.73;;;9.40;99.90;;;;;;5051124;28;20025;-70
2022/01/16 04:36:18;;;;;;;6.35;1.70;;;9.50;99.90;;;;;;5050794;28;20393;-71
2022/01/16 04:38:49;;;;;;;4.28;1.95;;;9.60;99.90;;;;;;5051040;28;20063;-71
2022/01/16 04:44:02;;;;;;;6.72;2.17;;;9.50;99.90;;;;;;5055123;28;20040;-71
2022/01/16 04:46:30;;;;;;;4.18;2.10;;;9.40;99.90;;;;;;5054908;28;20117;-71
2022/01/16 04:48:58;;;;;;;3.88;2.13;;;9.40;99.90;;;;;;5054470;28;20062;-70
2022/01/16 04:51:26;;;;;;;5.10;2.10;;;9.40;99.90;;;;;;5054437;28;20024;-71
2022/01/16 04:53:52;;;;;;;4.38;2.40;;;9.40;99.90;;;;;;5054675;28;20134;-71
2022/01/16 04:56:18;;;;;;;6.88;2.42;;;9.30;99.90;;;;;;5036446;28;20479;-71
2022/01/16 04:58:45;;;;;;;5.93;2.43;;;9.30;99.90;;;;;;5054603;28;20037;-71
2022/01/16 05:01:12;;;;;;;8.35;2.30;;;9.40;99.90;;;;;;5054487;28;20016;-71
2022/01/16 05:03:39;;;;;;;7.25;2.95;;;9.50;99.90;;;;;;5054414;28;20382;-71
2022/01/16 05:06:05;;;;;;;;;;;9.50;99.90;;;;;;5054571;28;20055;-71
2022/01/16 05:08:31;;;;;;;4.95;2.65;;;9.50;99.90;;;;;;5054627;28;19905;-71
2022/01/16 05:10:58;;;;;;;5.50;2.20;;;9.50;99.90;;;;;;5054034;28;20059;-71
2022/01/16 05:13:31;;;;;;;6.45;2.60;;;9.50;99.90;;;;;;5054442;28;20495;-72
2022/01/16 05:18:43;;;;;;;7.82;2.70;;;9.50;99.90;;;;;;5054643;28;20044;-70
2022/01/16 05:21:10;;;;;;;6.10;2.70;;;9.50;99.90;;;;;;5054555;28;20416;-71
2022/01/16 05:23:36;;;;;;;5.28;3.08;;;9.50;99.90;;;;;;5054310;28;20032;-71
2022/01/16 05:26:04;;;;;;;5.10;3.00;;;9.50;99.90;;;;;;5054252;28;20503;-71
2022/01/16 05:28:31;;;;;;;3.30;2.10;;;9.50;99.90;;;;;;5054094;28;20044;-71
2022/01/16 05:30:57;;;;;;;5.97;2.83;;;9.50;99.90;;;;;;5053875;28;20568;-71
2022/01/16 05:33:23;;;;;;;7.38;3.33;;;9.50;99.90;;;;;;5035497;28;20393;-71
2022/01/16 05:35:49;;;;;;;4.68;2.75;;;9.50;99.90;;;;;;5053744;28;20191;-71
2022/01/16 05:38:16;;;;;;;5.25;3.03;;;9.50;99.90;;;;;;5053781;28;20480;-71
2022/01/16 05:40:43;;;;;;;5.20;3.10;;;9.40;99.90;;;;;;5054147;28;20096;-71
2022/01/16 05:43:09;;;;;;;;;;;9.30;99.90;;;;;;5053985;28;20025;-71
2022/01/16 05:45:36;;;;;;;5.70;3.50;;;9.40;99.90;;;;;;5053461;28;20306;-71
2022/01/16 05:48:02;;;;;;;8.20;2.78;;;9.40;99.90;;;;;;5053426;28;20127;-70
2022/01/16 05:50:31;;;;;;;6.35;3.25;;;9.40;99.90;;;;;;5053531;28;20100;-71
2022/01/16 05:52:58;;;;;;;7.45;3.35;;;9.30;99.90;;;;;;5052146;28;20051;-71
2022/01/16 05:55:29;;;;;;;7.20;3.28;;;9.30;99.90;;;;;;5053541;28;20025;-71
2022/01/16 05:57:55;;;;;;;6.88;3.35;;;9.30;99.90;;;;;;5053684;28;20112;-71
2022/01/16 06:00:21;;;;;;;8.75;3.78;;;9.30;99.90;;;;;;5053081;28;20445;-70
2022/01/16 06:02:47;;;;;;;7.97;3.70;;;9.20;99.90;;;;;;5053518;28;20036;-72
2022/01/16 06:05:13;;;;;;;5.63;3.70;;;9.20;99.90;;;;;;5053161;28;20037;-70
2022/01/16 06:07:44;;;;;;;7.10;3.77;;;9.20;99.90;;;;;;5053470;28;20331;-70
2022/01/16 06:10:11;;;;;;;6.18;2.97;;;9.20;99.90;;;;;;5053461;28;20262;-69
2022/01/16 06:12:37;;;;;;;5.68;3.15;;;9.30;99.90;;;;;;5053058;28;20035;-70
2022/01/16 06:15:05;;;;;;;5.80;3.17;;;9.30;99.90;;;;;;5053057;28;20485;-72
2022/01/16 06:17:31;;;;;;;5.72;3.40;;;9.50;99.90;;;;;;5052859;28;20142;-71
2022/01/16 06:19:57;;;;;;;5.38;3.13;;;9.50;99.90;;;;;;5052825;28;20032;-71
2022/01/16 06:22:23;;;;;;;5.80;3.08;;;9.50;99.90;;;;;;5050544;28;20366;-69
2022/01/16 06:24:49;;;;;;;4.67;2.70;;;9.40;99.90;;;;;;5050253;28;20094;-70
2022/01/16 06:27:15;;;;;;;10.93;3.92;;;9.50;99.90;;;;;;5051369;28;20029;-70
2022/01/16 06:29:41;;;;;;;7.57;2.70;;;9.60;99.90;;;;;;5051350;28;20033;-70
2022/01/16 06:32:08;;;;;;;7.22;3.50;;;9.60;99.90;;;;;;5051395;28;20040;-71
2022/01/16 06:34:34;;;;;;;6.97;3.70;;;9.60;99.90;;;;;;5051482;28;20017;-67
2022/01/16 06:37:00;;;;;;;9.70;5.57;;;9.70;99.90;;;;;;5051287;28;20029;-70
2022/01/16 06:39:29;;;;;;;9.87;5.43;;;9.90;99.90;;;;;;5051167;28;20024;-71
2022/01/16 06:41:56;;;;;;;9.07;4.85;;;10.30;99.90;;;;;;5051542;28;20473;-68
2022/01/16 06:44:22;;;;;;;;;;;10.80;99.90;;;;;;5051517;28;20131;-67
2022/01/16 06:46:48;;;;;;;23.27;11.70;;;11.20;99.90;;;;;;5050134;28;19916;-70
2022/01/16 06:49:14;;;;;;;24.75;13.45;;;11.40;99.90;;;;;;5049613;28;20021;-65
2022/01/16 06:51:40;;;;;;;23.77;11.73;;;11.60;99.90;;;;;;5049482;28;20059;-70
2022/01/16 06:54:06;;;;;;;20.02;10.95;;;11.90;99.90;;;;;;5032581;28;20025;-69
2022/01/16 06:56:33;;;;;;;19.88;8.77;;;12.30;99.90;;;;;;5050755;28;20487;-70
2022/01/16 06:58:59;;;;;;;17.73;7.57;;;12.60;99.90;;;;;;5032826;28;20488;-68
2022/01/16 07:01:26;;;;;;;12.25;6.10;;;12.70;99.90;;;;;;5049814;28;20285;-71
2022/01/16 07:03:56;;;;;;;8.38;4.50;;;12.90;99.90;;;;;;5048829;28;20036;-70
2022/01/16 07:06:23;;;;;;;10.10;4.35;;;13.10;99.90;;;;;;5051683;28;20047;-66
2022/01/16 07:08:50;;;;;;;10.88;4.32;;;13.50;99.90;;;;;;5051834;28;20140;-71
2022/01/16 07:11:16;;;;;;;9.60;3.63;;;14.00;99.90;;;;;;5051607;28;20043;-71
2022/01/16 07:13:42;;;;;;;5.75;3.50;;;14.60;99.90;;;;;;5051744;28;20063;-71
2022/01/16 07:16:08;;;;;;;10.60;3.67;;;14.60;99.90;;;;;;5051478;28;20112;-71
2022/01/16 07:18:34;;;;;;;8.73;3.50;;;14.50;99.90;;;;;;5052238;28;20028;-71
2022/01/16 07:21:00;;;;;;;8.75;3.00;;;14.80;99.90;;;;;;5052087;28;20048;-71
2022/01/16 07:23:27;;;;;;;5.53;2.77;;;15.30;99.90;;;;;;5052256;28;20095;-68
2022/01/16 07:25:53;;;;;;;5.93;2.65;;;16.20;99.90;;;;;;5034256;28;20354;-71
2022/01/16 07:28:20;;;;;;;5.97;2.83;;;16.10;99.90;;;;;;5033958;28;20520;-71
2022/01/16 07:30:47;;;;;;;4.93;2.67;;;16.10;99.90;;;;;;5051826;28;20080;-70
2022/01/16 07:33:13;;;;;;;5.00;2.20;;;15.90;99.90;;;;;;5051812;28;20087;-70
2022/01/16 07:35:39;;;;;;;7.15;2.53;;;15.90;99.90;;;;;;5052123;28;20028;-70
2022/01/16 07:38:07;;;;;;;5.67;2.03;;;15.90;99.90;;;;;;5051535;28;20477;-70
2022/01/16 07:40:35;;;;;;;4.35;2.10;;;16.20;99.90;;;;;;5051706;28;20267;-70
2022/01/16 07:43:01;;;;;;;4.70;2.20;;;16.30;99.80;;;;;;5051650;28;20045;-70
2022/01/16 07:45:28;;;;;;;5.88;2.10;;;16.80;99.40;;;;;;5051951;28;20031;-70
2022/01/16 07:47:54;;;;;;;4.72;2.00;;;17.70;98.30;;;;;;5051658;28;20027;-70
2022/01/16 07:50:20;;;;;;;5.72;2.10;;;17.90;97.60;;;;;;5051291;28;20037;-69
2022/01/16 07:52:48;;;;;;;6.68;2.20;;;17.60;97.60;;;;;;5033413;28;20361;-70
2022/01/16 07:55:14;;;;;;;6.25;2.67;;;16.80;98.70;;;;;;5033993;28;20051;-69
2022/01/16 07:57:40;;;;;;;7.75;2.30;;;15.90;99.80;;;;;;5051591;28;20055;-71
2022/01/16 08:00:07;;;;;;;6.83;2.37;;;15.10;99.90;;;;;;5051527;28;20132;-70
2022/01/16 08:02:33;;;;;;;5.70;2.35;;;14.50;99.90;;;;;;5052288;28;20138;-70
2022/01/16 08:04:59;;;;;;;8.63;2.40;;;14.10;99.90;;;;;;5051107;28;20036;-70
2022/01/16 08:07:25;;;;;;;4.50;2.22;;;14.10;99.90;;;;;;5051514;28;20033;-69
2022/01/16 08:09:51;;;;;;;6.75;2.33;;;14.00;99.90;;;;;;5051141;28;20021;-69
2022/01/16 08:12:17;;;;;;;5.80;2.43;;;13.80;99.90;;;;;;5051237;28;20080;-70
2022/01/16 08:14:43;;;;;;;5.32;2.65;;;13.50;99.90;;;;;;5051778;28;20051;-70
2022/01/16 08:17:09;;;;;;;7.03;2.60;;;13.40;99.90;;;;;;5051490;28;20025;-70
2022/01/16 08:19:35;;;;;;;5.13;2.60;;;13.40;99.90;;;;;;5051394;28;20040;-70
2022/01/16 08:22:01;;;;;;;4.97;2.37;;;13.50;99.90;;;;;;5051111;28;20029;-70
2022/01/16 08:24:27;;;;;;;5.40;2.60;;;13.40;99.90;;;;;;5051071;28;20029;-70
2022/01/16 08:26:53;;;;;;;6.53;2.58;;;13.40;99.90;;;;;;5051570;28;20611;-69
2022/01/16 08:29:19;;;;;;;7.17;2.40;;;13.50;99.90;;;;;;5051301;28;20029;-70
2022/01/16 08:31:46;;;;;;;6.63;2.40;;;13.50;99.90;;;;;;5051093;28;20063;-69
2022/01/16 08:34:12;;;;;;;5.70;2.13;;;13.70;99.90;;;;;;5051342;28;20475;-69
2022/01/16 08:36:38;;;;;;;8.20;2.78;;;13.90;99.90;;;;;;5051305;28;20767;-70
2022/01/16 08:39:05;;;;;;;4.80;2.10;;;14.00;99.90;;;;;;5050874;28;20068;-72
2022/01/16 08:41:32;;;;;;;;;;;14.30;99.90;;;;;;5051274;28;20357;-72
2022/01/16 08:43:58;;;;;;;4.40;1.70;;;14.40;99.90;;;;;;5050762;28;19904;-72
2022/01/16 08:46:24;;;;;;;5.53;2.47;;;14.50;99.90;;;;;;5050897;28;20139;-73
2022/01/16 08:48:52;;;;;;;4.75;2.28;;;14.50;99.90;;;;;;5051169;28;20350;-72
2022/01/16 08:51:18;;;;;;;6.78;2.47;;;14.40;99.90;;;;;;5050954;28;20037;-72
2022/01/16 08:53:45;;;;;;;7.25;2.63;;;14.50;99.90;;;;;;5051111;28;20047;-72
2022/01/16 08:56:13;;;;;;;6.93;2.47;;;14.60;99.90;;;;;;5050790;28;20073;-72
2022/01/16 08:58:39;;;;;;;6.90;2.30;;;14.40;99.90;;;;;;5051143;28;20048;-72
2022/01/16 09:01:05;;;;;;;4.53;2.22;;;14.40;99.90;;;;;;5032999;28;20025;-72
2022/01/16 09:03:32;;;;;;;6.40;2.63;;;14.20;99.90;;;;;;5050876;28;20388;-72
2022/01/16 09:05:58;;;;;;;7.00;2.17;;;14.20;99.90;;;;;;5032507;28;20052;-72
2022/01/16 09:08:24;;;;;;;5.53;2.53;;;14.00;99.90;;;;;;5050001;28;20017;-73
2022/01/16 09:10:50;;;;;;;10.40;2.40;;;14.00;99.90;;;;;;5050372;28;20033;-72
2022/01/16 09:13:16;;;;;;;8.40;2.83;;;14.00;99.90;;;;;;5050865;28;20029;-73
2022/01/16 09:15:44;;;;;;;6.82;2.75;;;14.10;99.90;;;;;;5050938;28;20492;-72
2022/01/16 09:18:11;;;;;;;6.82;2.95;;;14.00;99.90;;;;;;5051106;28;20477;-72
2022/01/16 09:20:38;;;;;;;6.65;2.63;;;14.10;99.90;;;;;;5050781;28;20417;-72
2022/01/16 09:23:04;;;;;;;7.72;3.00;;;14.20;99.90;;;;;;5050838;28;20028;-73
2022/01/16 09:25:31;;;;;;;6.80;2.55;;;14.40;99.90;;;;;;5051091;28;20029;-71
2022/01/16 09:27:57;;;;;;;6.28;2.53;;;14.70;99.90;;;;;;5053148;28;20021;-72
2022/01/16 09:30:24;;;;;;;5.13;2.50;;;14.80;99.90;;;;;;5054224;28;20056;-71
2022/01/16 09:32:50;;;;;;;;;;;14.80;99.90;;;;;;5054546;28;20033;-71
2022/01/16 09:35:17;;;;;;;6.55;2.60;;;15.00;99.90;;;;;;5053823;28;19954;-71
2022/01/16 09:37:44;;;;;;;6.55;2.45;;;15.10;99.90;;;;;;5053638;28;20052;-71
2022/01/16 09:40:13;;;;;;;9.93;2.70;;;15.20;99.90;;;;;;5053786;28;20021;-71
2022/01/16 09:42:39;;;;;;;5.88;2.33;;;15.00;99.90;;;;;;5053438;28;20153;-70
2022/01/16 09:45:08;;;;;;;6.70;2.60;;;14.90;99.90;;;;;;5053203;28;20094;-71
2022/01/16 09:47:34;;;;;;;4.60;2.08;;;14.90;99.90;;;;;;5053450;28;20025;-71
2022/01/16 09:50:04;;;;;;;6.77;2.27;;;14.80;99.90;;;;;;5053689;28;20080;-69
2022/01/16 09:52:34;;;;;;;3.25;1.83;;;14.80;99.90;;;;;;5054114;28;20404;-71
2022/01/16 09:55:00;;;;;;;6.85;2.85;;;14.90;99.90;;;;;;5053769;28;20353;-71
2022/01/16 09:57:26;;;;;;;6.50;2.20;;;15.00;99.90;;;;;;5053460;28;20028;-71
2022/01/16 09:59:52;;;;;;;4.67;1.90;;;14.80;99.90;;;;;;5053346;28;20327;-70
2022/01/16 10:02:18;;;;;;;6.63;2.17;;;14.90;99.90;;;;;;5053108;28;20137;-70
2022/01/16 10:04:44;;;;;;;5.82;2.10;;;14.90;99.90;;;;;;5053290;28;20299;-71
2022/01/16 10:07:13;;;;;;;4.43;2.03;;;15.20;99.90;;;;;;5052867;28;20114;-69
2022/01/16 10:09:45;;;;;;;5.72;2.08;;;15.30;99.90;;;;;;5053286;28;20108;-70
2022/01/16 10:12:15;;;;;;;8.32;2.10;;;15.50;99.90;;;;;;5052969;28;20051;-66
2022/01/16 10:14:49;;;;;;;8.23;3.15;;;15.80;99.90;;;;;;5053443;28;20028;-66
2022/01/16 10:17:24;;;;;;;5.97;3.05;;;16.20;99.90;;;;;;5053204;28;20101;-71
2022/01/16 10:19:59;;;;;;;6.18;2.78;;;16.50;99.90;;;;;;5052714;28;20029;-67
2022/01/16 10:22:41;;;;;;;7.85;2.85;;;16.60;99.90;;;;;;5052679;28;20025;-72
2022/01/16 10:25:09;;;;;;;5.25;2.40;;;16.80;99.90;;;;;;5052688;28;20111;-71
2022/01/16 10:27:37;;;;;;;5.40;2.60;;;16.80;99.90;;;;;;5052837;28;20025;-72
2022/01/16 10:30:08;;;;;;;4.57;2.60;;;16.90;99.90;;;;;;5034368;28;20049;-71
2022/01/16 10:32:42;;;;;;;8.70;2.55;;;17.10;99.90;;;;;;5052432;28;20086;-71
2022/01/16 10:35:20;;;;;;;4.88;2.22;;;17.30;99.90;;;;;;5052651;28;20358;-71
2022/01/16 10:37:52;;;;;;;5.57;2.25;;;17.40;99.90;;;;;;5052057;28;20392;-71
2022/01/16 10:40:24;;;;;;;6.80;2.30;;;17.20;99.90;;;;;;5052580;28;20571;-72
2022/01/16 10:42:53;;;;;;;8.07;2.60;;;17.30;99.90;;;;;;5052704;28;20381;-71
2022/01/16 10:45:24;;;;;;;5.13;2.80;;;17.40;99.90;;;;;;5052339;28;20032;-72
2022/01/16 10:47:54;;;;;;;5.88;2.38;;;17.40;99.90;;;;;;5052496;28;20052;-71
2022/01/16 10:50:24;;;;;;;5.53;1.90;;;17.30;99.90;;;;;;5052744;28;20206;-71
2022/01/16 10:53:05;;;;;;;5.45;2.50;;;17.30;99.90;;;;;;5052739;28;20035;-72
2022/01/16 10:55:37;;;;;;;5.85;1.92;;;17.30;99.90;;;;;;5052420;28;20040;-71
2022/01/16 10:58:20;;;;;;;8.07;2.83;;;17.20;99.90;;;;;;5052692;28;20021;-72
2022/01/16 11:00:54;;;;;;;5.93;1.83;;;17.30;99.90;;;;;;5052097;28;20081;-71
2022/01/16 11:03:21;;;;;;;4.03;1.80;;;17.40;99.90;;;;;;5052447;28;20097;-72
2022/01/16 11:05:49;;;;;;;3.97;1.80;;;17.40;99.90;;;;;;5051882;28;20045;-72
2022/01/16 11:08:21;;;;;;;4.57;2.15;;;17.60;99.90;;;;;;5052434;28;20021;-72
2022/01/16 11:10:48;;;;;;;4.47;2.33;;;17.70;99.90;;;;;;5051896;28;20091;-72
2022/01/16 11:13:20;;;;;;;5.65;2.17;;;17.70;99.90;;;;;;5051515;28;20036;-71
2022/01/16 11:15:48;;;;;;;6.60;1.98;;;17.70;99.90;;;;;;5052090;28;20405;-71
2022/01/16 11:18:17;;;;;;;4.00;1.70;;;17.70;99.90;;;;;;5051623;28;20093;-72
2022/01/16 11:20:52;;;;;;;5.05;1.90;;;17.40;99.90;;;;;;5051862;28;20033;-71
2022/01/16 11:25:59;;;;;;;4.38;1.73;;;16.90;99.90;;;;;;5051639;28;20092;-71
2022/01/16 11:28:26;;;;;;;5.40;2.00;;;17.00;99.90;;;;;;5051534;28;20021;-72
2022/01/16 11:30:54;;;;;;;4.25;1.98;;;17.20;99.90;;;;;;5033388;28;20331;-70
2022/01/16 11:33:23;;;;;;;4.38;1.98;;;17.20;99.90;;;;;;5051604;28;20123;-72
2022/01/16 11:35:52;;;;;;;6.90;2.03;;;17.00;99.90;;;;;;5033664;28;20535;-72
2022/01/16 11:38:20;;;;;;;4.65;1.92;;;17.10;99.90;;;;;;5051851;28;20021;-71
2022/01/16 11:40:48;;;;;;;6.82;1.85;;;17.30;99.90;;;;;;5051615;28;20033;-72
2022/01/16 11:43:29;;;;;;;6.95;2.28;;;17.40;99.90;;;;;;5051227;28;20028;-71
2022/01/16 11:46:06;;;;;;;7.05;2.75;;;17.40;99.90;;;;;;5051490;28;20104;-72
2022/01/16 11:49:01;;;;;;;5.95;2.60;;;17.50;99.90;;;;;;5051305;28;20021;-71
2022/01/16 11:51:37;;;;;;;5.05;2.55;;;17.60;99.90;;;;;;5050981;28;20031;-71
2022/01/16 11:54:07;;;;;;;5.63;2.40;;;17.60;99.90;;;;;;5051288;28;20031;-72
2022/01/16 11:56:40;;;;;;;6.93;3.15;;;17.70;99.90;;;;;;5051357;28;20060;-71
2022/01/16 11:59:28;;;;;;;7.85;3.10;;;17.80;99.90;;;;;;5050775;28;20033;-73
2022/01/16 12:02:00;;;;;;;6.72;3.10;;;17.70;99.90;;;;;;5050809;28;20039;-72
2022/01/16 12:04:30;;;;;;;8.20;3.75;;;17.70;99.90;;;;;;5050859;28;20033;-73
2022/01/16 12:07:15;;;;;;;5.78;2.90;;;17.70;99.90;;;;;;5050727;28;20059;-73
2022/01/16 12:09:57;;;;;;;7.15;2.92;;;17.70;99.90;;;;;;5050721;28;20539;-75
2022/01/16 12:12:23;;;;;;;5.22;2.80;;;17.60;99.90;;;;;;5050819;28;20029;-73
2022/01/16 12:15:05;;;;;;;6.17;2.67;;;17.80;99.90;;;;;;5050961;28;20059;-73
2022/01/16 12:17:44;;;;;;;7.00;3.00;;;18.00;99.90;;;;;;5050603;28;20259;-73
2022/01/16 12:20:14;;;;;;;6.05;3.67;;;18.00;99.90;;;;;;5051164;28;20333;-73
2022/01/16 12:22:48;;;;;;;66.90;5.88;;;18.00;99.90;;;;;;5050819;28;20461;-74
2022/01/16 12:25:21;;;;;;;7.20;2.78;;;18.00;99.90;;;;;;5051022;28;20369;-74
2022/01/16 12:27:50;;;;;;;7.97;2.60;;;18.10;99.90;;;;;;5050837;28;20056;-73
2022/01/16 12:30:38;;;;;;;6.32;2.90;;;18.00;99.90;;;;;;5050644;28;20080;-73
2022/01/16 12:33:16;;;;;;;4.55;2.55;;;17.80;99.90;;;;;;5050555;28;20125;-72
2022/01/16 12:35:44;;;;;;;4.75;2.13;;;17.80;99.90;;;;;;5050627;28;20040;-72
2022/01/16 12:38:13;;;;;;;8.05;2.10;;;17.70;99.90;;;;;;5050387;28;20033;-73
2022/01/16 12:40:43;;;;;;;4.93;2.10;;;17.70;99.90;;;;;;5050848;28;20102;-73
2022/01/16 12:43:13;;;;;;;5.15;2.42;;;17.60;99.90;;;;;;5050459;28;20523;-72
2022/01/16 12:45:43;;;;;;;4.43;1.90;;;17.60;99.90;;;;;;5051317;28;20362;-75
2022/01/16 12:48:10;;;;;;;5.40;1.80;;;17.70;99.90;;;;;;5050849;28;20025;-74
2022/01/16 12:50:37;;;;;;;5.93;1.98;;;17.70;99.90;;;;;;5050459;28;20021;-73
2022/01/16 12:53:04;;;;;;;5.28;1.80;;;17.50;99.90;;;;;;5050577;28;20033;-74
2022/01/16 12:55:31;;;;;;;;;;;17.50;99.90;;;;;;5050878;28;20035;-73
2022/01/16 12:58:20;;;;;;;5.57;2.05;;;17.50;99.90;;;;;;5050617;28;19904;-73
2022/01/16 13:01:04;;;;;;;4.82;1.95;;;17.40;99.90;;;;;;5051547;28;20156;-73
2022/01/16 13:03:32;;;;;;;4.70;1.70;;;17.20;99.90;;;;;;5054991;28;20030;-73
2022/01/16 13:06:18;;;;;;;5.93;1.98;;;17.40;99.90;;;;;;5054168;28;20502;-72
2022/01/16 13:08:57;;;;;;;4.57;1.85;;;17.40;99.90;;;;;;5054586;28;20070;-73
2022/01/16 13:11:44;;;;;;;3.15;1.58;;;17.50;99.90;;;;;;5054243;28;20384;-72
2022/01/16 13:14:19;;;;;;;4.28;1.80;;;17.40;99.90;;;;;;5053161;28;20071;-72
2022/01/16 13:16:48;;;;;;;5.07;1.80;;;17.20;99.90;;;;;;5053928;28;20036;-72
2022/01/16 13:19:17;;;;;;;4.72;1.60;;;17.10;99.90;;;;;;5053973;28;20021;-72
2022/01/16 13:22:11;;;;;;;5.38;1.63;;;17.20;99.90;;;;;;5053662;28;20024;-74
2022/01/16 13:24:48;;;;;;;4.25;2.00;;;17.40;99.90;;;;;;5054335;28;20115;-73
2022/01/16 13:27:15;;;;;;;6.88;2.20;;;17.30;99.90;;;;;;5054063;28;20454;-73
2022/01/16 13:29:51;;;;;;;3.35;1.70;;;17.40;99.90;;;;;;5054064;28;20040;-73
2022/01/16 13:32:20;;;;;;;5.45;2.58;;;17.50;99.90;;;;;;5053597;28;20033;-73
2022/01/16 13:34:54;;;;;;;6.38;2.30;;;17.50;99.90;;;;;;5053711;28;20040;-73
2022/01/16 13:37:38;;;;;;;4.55;2.10;;;17.50;99.90;;;;;;5053775;28;20048;-72
2022/01/16 13:40:09;;;;;;;5.47;2.38;;;17.50;99.90;;;;;;5054029;28;20021;-73
2022/01/16 13:42:41;;;;;;;4.22;1.83;;;17.50;99.90;;;;;;5053777;28;20091;-73